Impacts TAF Board INFO
FOR SITUATIONAL AWARENESS. NOT TO BE USED FOR FLIGHT PLANNING PURPOSES.
IDs:

KBOS - Boston/Logan Intl, MA, US

Issued at 1358 UTC 18 Jan 2018
Updated at 1534 UTC 18 Jan 2018
Potential Impact None Slight Moderate High
Time<<19/16Z 19/17Z 19/18Z 19/19Z 19/20Z 19/21Z 19/22Z 19/23Z 20/00Z 20/01Z 20/02Z 20/03Z 20/04Z
Type PRVL PRVL
VIS >6 >6
CIG 250 250
Cover BKN BKN
FltCat VFR VFR
WX -- --
WDir 290 290
WSpd 6 6
WGst -- --

Raw TAF
KBOS 181358Z 1814/1918 30010KT P6SM FEW250
  FM181700 34007KT P6SM SCT250
  FM190600 29006KT P6SM BKN250


METAR Board
Radar Display
Forecast Discussion

FOR SITUATIONAL AWARENESS. NOT TO BE USED FOR FLIGHT PLANNING PURPOSES.